Time;durP1;ratioP1;P1;durP2;ratioP2;P2;SDS_P1;SDS_P2;PMS_P1;PMS_P2;Temp;Humidity;BMP_temperature;BMP_pressure;BME280_temperature;BME280_humidity;BME280_pressure;Samples;Min_cycle;Max_cycle;Signal;HPM_P1;HPM_P2
2020/12/06 00:02:04;;;;;;;29.20;14.00;;;;;;;;;;8293017;28;20386;-76
2020/12/06 00:06:07;;;;;;;27.55;13.85;;;;;;;;;;8291811;28;20375;-76
2020/12/06 00:10:17;;;;;;;24.13;14.00;;;;;;;;;;8275716;28;20460;-75
2020/12/06 00:14:20;;;;;;;27.55;14.82;;;;;;;;;;8274439;28;20452;-76
2020/12/06 00:18:23;;;;;;;28.63;14.02;;;;;;;;;;8291716;28;20477;-75
2020/12/06 00:22:26;;;;;;;30.45;15.13;;;;;;;;;;8292583;28;20497;-75
2020/12/06 00:26:31;;;;;;;26.50;14.23;;;;;;;;;;8274617;28;20379;-76
2020/12/06 00:30:33;;;;;;;28.83;14.00;;;;;;;;;;8292210;28;20162;-75
2020/12/06 00:34:36;;;;;;;25.30;13.98;;;;;;;;;;8290759;28;20490;-76
2020/12/06 00:38:40;;;;;;;26.23;13.73;;;;;;;;;;8291261;28;20458;-75
2020/12/06 00:42:43;;;;;;;23.83;12.00;;;;;;;;;;8288990;28;20483;-75
2020/12/06 00:46:45;;;;;;;27.90;13.48;;;;;;;;;;8291172;28;20540;-75
2020/12/06 00:50:48;;;;;;;26.10;15.60;;;;;;;;;;8272663;28;20410;-74
2020/12/06 00:54:51;;;;;;;25.63;12.85;;;;;;;;;;8288946;28;20372;-74
2020/12/06 00:58:54;;;;;;;28.08;14.55;;;;;;;;;;8271756;28;20353;-74
2020/12/06 01:02:58;;;;;;;24.05;13.30;;;;;;;;;;8290395;28;20475;-74
2020/12/06 01:07:01;;;;;;;29.80;15.15;;;;;;;;;;8290139;28;20413;-75
2020/12/06 01:11:04;;;;;;;28.60;18.08;;;;;;;;;;8290513;28;20459;-75
2020/12/06 01:15:11;;;;;;;30.45;13.55;;;;;;;;;;8289408;28;20106;-74
2020/12/06 01:19:14;;;;;;;51.08;26.83;;;;;;;;;;8288634;28;20070;-75
2020/12/06 01:23:19;;;;;;;40.90;22.77;;;;;;;;;;8290612;28;20456;-75
2020/12/06 01:27:22;;;;;;;25.55;13.95;;;;;;;;;;8288960;28;20459;-75
2020/12/06 01:31:25;;;;;;;29.88;13.85;;;;;;;;;;8290520;28;20371;-75
2020/12/06 01:35:28;;;;;;;25.38;12.90;;;;;;;;;;8289538;28;20383;-75
2020/12/06 01:39:34;;;;;;;26.10;12.73;;;;;;;;;;8289748;28;20462;-75
2020/12/06 01:43:36;;;;;;;28.25;12.80;;;;;;;;;;8289733;28;20045;-75
2020/12/06 01:47:39;;;;;;;23.75;12.93;;;;;;;;;;8289700;28;20044;-75
2020/12/06 01:51:43;;;;;;;30.33;13.93;;;;;;;;;;8289306;28;20471;-75
2020/12/06 01:55:48;;;;;;;32.20;14.75;;;;;;;;;;8272374;28;20375;-75
2020/12/06 01:59:51;;;;;;;28.48;14.60;;;;;;;;;;8289184;28;20083;-75
2020/12/06 02:03:54;;;;;;;29.25;13.45;;;;;;;;;;8288233;28;20074;-75
2020/12/06 02:07:58;;;;;;;23.52;12.43;;;;;;;;;;8289557;28;20356;-75
2020/12/06 02:12:09;;;;;;;27.58;14.23;;;;;;;;;;8295933;28;20059;-74
2020/12/06 02:16:14;;;;;;;32.03;15.35;;;;;;;;;;8295314;28;20509;-76
2020/12/06 02:20:21;;;;;;;25.00;14.43;;;;;;;;;;8294663;28;20375;-75
2020/12/06 02:24:24;;;;;;;30.60;13.18;;;;;;;;;;8294189;28;20360;-75
2020/12/06 02:28:27;;;;;;;20.95;11.90;;;;;;;;;;8295402;28;20052;-75
2020/12/06 02:32:30;;;;;;;23.95;12.90;;;;;;;;;;8295632;28;20071;-75
2020/12/06 02:36:33;;;;;;;22.67;12.57;;;;;;;;;;8295153;28;20463;-75
2020/12/06 02:40:36;;;;;;;26.77;12.77;;;;;;;;;;8295454;28;20356;-75
2020/12/06 02:44:38;;;;;;;23.27;12.65;;;;;;;;;;8277731;28;20467;-76
2020/12/06 02:48:41;;;;;;;26.83;13.02;;;;;;;;;;8293354;28;20490;-76
2020/12/06 02:52:44;;;;;;;21.25;11.32;;;;;;;;;;8276642;28;20083;-75
2020/12/06 02:56:47;;;;;;;24.45;13.18;;;;;;;;;;8276913;28;20379;-75
2020/12/06 03:00:50;;;;;;;33.58;15.57;;;;;;;;;;8293689;28;20478;-75
2020/12/06 03:04:53;;;;;;;24.67;11.98;;;;;;;;;;8277055;28;20048;-75
2020/12/06 03:08:56;;;;;;;19.00;11.40;;;;;;;;;;8293606;28;20414;-75
2020/12/06 03:12:59;;;;;;;21.33;12.35;;;;;;;;;;8275915;28;20509;-76
2020/12/06 03:17:02;;;;;;;26.02;11.70;;;;;;;;;;8294731;28;20393;-75
2020/12/06 03:21:05;;;;;;;24.55;12.07;;;;;;;;;;8293173;28;20463;-75
2020/12/06 03:25:08;;;;;;;26.33;12.18;;;;;;;;;;8293888;28;20356;-75
2020/12/06 03:29:10;;;;;;;28.73;12.15;;;;;;;;;;8294171;28;20479;-76
2020/12/06 03:33:13;;;;;;;21.08;11.55;;;;;;;;;;8275777;28;20372;-76
2020/12/06 03:37:17;;;;;;;24.15;12.07;;;;;;;;;;8292904;28;20498;-75
2020/12/06 03:41:20;;;;;;;24.90;12.02;;;;;;;;;;8294010;28;20070;-76
2020/12/06 03:45:23;;;;;;;18.95;11.43;;;;;;;;;;8293218;28;20044;-76
2020/12/06 03:49:26;;;;;;;24.10;11.95;;;;;;;;;;8293409;28;20368;-76
2020/12/06 03:53:28;;;;;;;21.45;10.32;;;;;;;;;;8274896;28;20045;-76
2020/12/06 03:57:32;;;;;;;20.35;11.32;;;;;;;;;;8292778;28;20471;-76
2020/12/06 04:01:34;;;;;;;18.77;10.70;;;;;;;;;;8274972;28;20367;-76
2020/12/06 04:05:37;;;;;;;20.25;11.68;;;;;;;;;;8292916;28;20068;-76
2020/12/06 04:09:40;;;;;;;20.35;11.57;;;;;;;;;;8292622;28;20379;-76
2020/12/06 04:13:43;;;;;;;21.38;11.63;;;;;;;;;;8292870;28;20460;-76
2020/12/06 04:17:46;;;;;;;21.42;10.32;;;;;;;;;;8292548;28;20435;-76
2020/12/06 04:21:49;;;;;;;21.60;11.75;;;;;;;;;;8274895;28;20481;-76
2020/12/06 04:25:51;;;;;;;19.00;11.68;;;;;;;;;;8292077;28;20063;-76
2020/12/06 04:29:55;;;;;;;21.33;11.63;;;;;;;;;;8291857;28;20074;-75
2020/12/06 04:33:57;;;;;;;18.52;11.27;;;;;;;;;;8289890;28;20368;-76
2020/12/06 04:38:00;;;;;;;17.88;10.35;;;;;;;;;;8291595;28;20380;-76
2020/12/06 04:42:04;;;;;;;22.15;11.30;;;;;;;;;;8292041;28;20394;-76
2020/12/06 04:46:07;;;;;;;18.15;10.82;;;;;;;;;;8291681;28;20472;-76
2020/12/06 04:50:15;;;;;;;20.55;10.25;;;;;;;;;;8273851;28;20371;-76
2020/12/06 04:54:20;;;;;;;23.00;10.93;;;;;;;;;;8257587;28;20056;-76
2020/12/06 04:58:27;;;;;;;18.20;10.68;;;;;;;;;;8257130;28;20476;-76
2020/12/06 05:02:33;;;;;;;21.67;10.77;;;;;;;;;;8258266;28;20052;-75
2020/12/06 05:06:39;;;;;;;18.00;11.30;;;;;;;;;;8256412;28;20460;-75
2020/12/06 05:10:46;;;;;;;19.90;10.73;;;;;;;;;;8272349;28;20059;-76
2020/12/06 05:14:50;;;;;;;19.50;10.77;;;;;;;;;;8256145;28;20053;-77
2020/12/06 05:18:53;;;;;;;19.95;10.27;;;;;;;;;;8256668;28;20479;-75
2020/12/06 05:22:56;;;;;;;20.30;10.75;;;;;;;;;;8257586;28;20040;-75
2020/12/06 05:26:59;;;;;;;17.50;10.10;;;;;;;;;;8256873;28;20412;-75
2020/12/06 05:31:02;;;;;;;15.57;9.35;;;;;;;;;;8255771;28;20045;-75
2020/12/06 05:35:07;;;;;;;16.02;9.75;;;;;;;;;;8223978;28;20473;-75
2020/12/06 05:39:10;;;;;;;17.60;10.13;;;;;;;;;;8204463;28;20380;-75
2020/12/06 05:43:13;;;;;;;16.58;9.75;;;;;;;;;;8211610;28;20072;-75
2020/12/06 05:47:16;;;;;;;17.85;10.57;;;;;;;;;;8222991;28;20507;-75
2020/12/06 05:51:19;;;;;;;18.90;10.95;;;;;;;;;;8230870;28;20487;-75
2020/12/06 05:55:25;;;;;;;20.40;10.30;;;;;;;;;;8250088;28;20395;-74
2020/12/06 05:59:30;;;;;;;17.40;10.18;;;;;;;;;;8250022;28;20383;-75
2020/12/06 06:03:40;;;;;;;17.05;9.52;;;;;;;;;;8234080;28;20052;-75
2020/12/06 06:07:46;;;;;;;16.35;8.93;;;;;;;;;;8229240;28;20369;-76
2020/12/06 06:12:01;;;;;;;16.15;9.27;;;;;;;;;;8235519;28;20095;-76
2020/12/06 06:16:04;;;;;;;17.40;9.38;;;;;;;;;;8245022;28;20696;-76
2020/12/06 06:20:07;;;;;;;18.67;9.45;;;;;;;;;;8228934;28;20487;-76
2020/12/06 06:24:15;;;;;;;17.73;8.85;;;;;;;;;;8240664;28;20379;-76
2020/12/06 06:28:17;;;;;;;15.63;9.32;;;;;;;;;;8222322;28;20483;-76
2020/12/06 06:32:22;;;;;;;14.23;8.02;;;;;;;;;;8271382;28;20505;-76
2020/12/06 06:36:28;;;;;;;14.95;9.02;;;;;;;;;;8262951;28;20377;-76
2020/12/06 06:40:32;;;;;;;15.32;9.10;;;;;;;;;;8259683;28;20471;-77
2020/12/06 06:44:45;;;;;;;13.93;7.78;;;;;;;;;;8279237;28;20461;-76
2020/12/06 06:48:50;;;;;;;16.58;8.98;;;;;;;;;;8261321;28;20474;-76
2020/12/06 06:52:56;;;;;;;16.75;9.43;;;;;;;;;;8228129;28;20392;-76
2020/12/06 06:57:00;;;;;;;16.83;8.38;;;;;;;;;;8226887;28;20484;-75
2020/12/06 07:01:23;;;;;;;15.35;8.43;;;;;;;;;;8225300;28;20562;-75
2020/12/06 07:05:26;;;;;;;14.68;9.27;;;;;;;;;;8225841;28;20384;-76
2020/12/06 07:09:31;;;;;;;14.05;8.07;;;;;;;;;;8226255;28;20472;-76
2020/12/06 07:13:35;;;;;;;15.25;9.20;;;;;;;;;;8228328;28;20367;-75
2020/12/06 07:17:39;;;;;;;15.10;8.93;;;;;;;;;;8227669;28;20049;-76
2020/12/06 07:21:42;;;;;;;14.60;7.93;;;;;;;;;;8227849;28;20368;-76
2020/12/06 07:25:46;;;;;;;17.67;9.93;;;;;;;;;;8228396;28;20456;-76
2020/12/06 07:29:49;;;;;;;15.45;8.77;;;;;;;;;;8227018;28;20065;-76
2020/12/06 07:33:52;;;;;;;15.43;8.07;;;;;;;;;;8205384;28;20111;-76
2020/12/06 07:37:58;;;;;;;15.20;9.07;;;;;;;;;;8209627;28;20478;-76
2020/12/06 07:42:01;;;;;;;20.33;8.82;;;;;;;;;;8194185;28;20372;-77
2020/12/06 07:46:15;;;;;;;15.15;8.10;;;;;;;;;;8219266;28;20075;-76
2020/12/06 07:50:22;;;;;;;16.00;8.17;;;;;;;;;;8222688;28;20488;-76
2020/12/06 07:54:25;;;;;;;13.65;7.47;;;;;;;;;;8290488;28;20691;-76
2020/12/06 07:58:28;;;;;;;18.13;9.07;;;;;;;;;;8292195;28;20062;-76
2020/12/06 08:02:33;;;;;;;14.70;7.88;;;;;;;;;;8291007;28;20501;-76
2020/12/06 08:06:37;;;;;;;13.95;8.45;;;;;;;;;;8263918;28;20056;-76
2020/12/06 08:10:41;;;;;;;19.65;10.43;;;;;;;;;;8266930;28;20057;-76
2020/12/06 08:14:44;;;;;;;12.02;7.60;;;;;;;;;;8248229;28;20064;-76
2020/12/06 08:19:01;;;;;;;16.48;8.10;;;;;;;;;;8251609;28;20459;-76
2020/12/06 08:23:04;;;;;;;14.13;8.60;;;;;;;;;;8239445;28;20391;-76
2020/12/06 08:27:20;;;;;;;14.23;8.55;;;;;;;;;;8290261;28;20352;-77
2020/12/06 08:31:24;;;;;;;13.90;9.38;;;;;;;;;;8274940;28;20348;-76
2020/12/06 08:35:48;;;;;;;21.17;10.85;;;;;;;;;;8284425;28;20483;-76
2020/12/06 08:39:51;;;;;;;21.45;12.52;;;;;;;;;;8269145;28;20478;-76
2020/12/06 08:44:04;;;;;;;35.38;16.85;;;;;;;;;;8272564;28;20405;-77
2020/12/06 08:48:08;;;;;;;37.35;15.20;;;;;;;;;;8271549;28;20455;-76
2020/12/06 08:52:22;;;;;;;27.73;15.10;;;;;;;;;;8288865;28;20487;-76
2020/12/06 08:56:31;;;;;;;99.72;40.75;;;;;;;;;;8286260;28;20070;-77
2020/12/06 09:00:34;;;;;;;147.30;35.53;;;;;;;;;;8270004;28;20475;-77
2020/12/06 09:04:37;;;;;;;41.00;15.50;;;;;;;;;;8258526;28;20374;-76
2020/12/06 09:08:40;;;;;;;60.88;16.13;;;;;;;;;;8249494;28;20385;-78
2020/12/06 09:12:44;;;;;;;210.70;54.08;;;;;;;;;;8262601;28;20460;-76
2020/12/06 09:16:47;;;;;;;144.05;37.58;;;;;;;;;;8240855;28;20053;-77
2020/12/06 09:20:50;;;;;;;186.35;50.15;;;;;;;;;;8252172;28;20460;-77
2020/12/06 09:24:53;;;;;;;216.65;58.35;;;;;;;;;;8238702;28;20468;-78
2020/12/06 09:28:55;;;;;;;123.88;33.22;;;;;;;;;;8259819;28;20430;-77
2020/12/06 09:32:58;;;;;;;68.38;19.98;;;;;;;;;;8242580;28;20485;-76
2020/12/06 09:37:02;;;;;;;427.63;105.00;;;;;;;;;;8257959;28;20480;-76
2020/12/06 09:41:07;;;;;;;256.52;66.22;;;;;;;;;;8256280;28;20055;-76
2020/12/06 09:45:10;;;;;;;79.85;29.25;;;;;;;;;;8256127;28;20379;-76
2020/12/06 09:49:13;;;;;;;116.40;42.28;;;;;;;;;;8256777;28;20490;-76
2020/12/06 09:53:17;;;;;;;69.85;27.58;;;;;;;;;;8240357;28;20411;-77
2020/12/06 09:57:25;;;;;;;19.50;10.15;;;;;;;;;;8249786;28;20479;-74
2020/12/06 10:01:27;;;;;;;37.33;17.10;;;;;;;;;;8252841;28;20483;-75
2020/12/06 10:05:30;;;;;;;16.85;8.48;;;;;;;;;;8254283;28;20456;-75
2020/12/06 10:09:34;;;;;;;32.95;15.30;;;;;;;;;;8255432;28;20402;-75
2020/12/06 10:13:39;;;;;;;12.82;6.35;;;;;;;;;;8252769;28;20494;-76
2020/12/06 10:17:42;;;;;;;33.75;16.85;;;;;;;;;;8234589;28;20494;-77
2020/12/06 10:21:46;;;;;;;13.65;7.97;;;;;;;;;;8225245;28;20415;-75
2020/12/06 10:25:48;;;;;;;40.78;22.35;;;;;;;;;;8236488;28;20437;-74
2020/12/06 10:29:52;;;;;;;45.80;17.98;;;;;;;;;;8259354;28;20485;-75
2020/12/06 10:33:55;;;;;;;381.35;160.18;;;;;;;;;;8262394;28;20410;-76
2020/12/06 10:37:57;;;;;;;88.00;38.55;;;;;;;;;;8260465;28;20057;-76
2020/12/06 10:42:02;;;;;;;60.13;25.00;;;;;;;;;;8263160;28;20482;-76
2020/12/06 10:46:05;;;;;;;32.38;17.42;;;;;;;;;;8261774;28;20402;-75
2020/12/06 10:50:08;;;;;;;39.22;17.63;;;;;;;;;;8242208;28;20379;-75
2020/12/06 10:54:12;;;;;;;73.95;26.95;;;;;;;;;;8243113;28;20484;-78
2020/12/06 10:58:15;;;;;;;61.58;21.13;;;;;;;;;;8246416;28;20502;-76
2020/12/06 11:02:18;;;;;;;52.88;19.70;;;;;;;;;;8276231;28;20653;-77
2020/12/06 11:06:25;;;;;;;57.60;20.55;;;;;;;;;;8198615;28;20387;-76
2020/12/06 11:10:28;;;;;;;42.45;17.35;;;;;;;;;;8216592;28;20486;-76
2020/12/06 11:14:33;;;;;;;57.72;22.30;;;;;;;;;;8312262;28;20095;-76
2020/12/06 11:18:36;;;;;;;31.77;14.32;;;;;;;;;;8312716;28;20505;-76
2020/12/06 11:22:40;;;;;;;54.00;23.90;;;;;;;;;;8309540;28;20370;-76
2020/12/06 11:26:43;;;;;;;83.30;34.25;;;;;;;;;;8326744;28;20052;-76
2020/12/06 11:30:49;;;;;;;115.20;45.72;;;;;;;;;;8326413;28;20494;-74
2020/12/06 11:34:51;;;;;;;40.85;16.60;;;;;;;;;;8312045;28;20375;-77
2020/12/06 11:38:56;;;;;;;43.60;22.60;;;;;;;;;;8325067;28;20486;-76
2020/12/06 11:43:00;;;;;;;43.63;23.88;;;;;;;;;;8322515;28;20099;-76
2020/12/06 11:47:02;;;;;;;19.35;11.32;;;;;;;;;;8315478;28;20463;-75
2020/12/06 11:51:05;;;;;;;27.10;15.07;;;;;;;;;;8291508;28;20376;-75
2020/12/06 11:55:08;;;;;;;46.50;25.20;;;;;;;;;;8299958;28;20165;-75
2020/12/06 11:59:11;;;;;;;34.80;18.75;;;;;;;;;;8313579;28;20447;-77
2020/12/06 12:03:15;;;;;;;21.30;11.43;;;;;;;;;;8317480;28;20044;-76
2020/12/06 12:07:18;;;;;;;27.23;14.23;;;;;;;;;;8322725;28;20459;-76
2020/12/06 12:11:22;;;;;;;26.08;12.85;;;;;;;;;;8302050;28;20403;-76
2020/12/06 12:15:24;;;;;;;23.55;12.13;;;;;;;;;;8322438;28;20374;-76
2020/12/06 12:19:28;;;;;;;20.23;11.20;;;;;;;;;;8298444;28;20356;-77
2020/12/06 12:23:31;;;;;;;34.40;18.35;;;;;;;;;;8290953;28;20056;-76
2020/12/06 12:27:34;;;;;;;18.15;9.45;;;;;;;;;;8291786;28;20074;-75
2020/12/06 12:31:37;;;;;;;27.27;13.95;;;;;;;;;;8291611;28;20467;-76
2020/12/06 12:35:45;;;;;;;19.05;11.23;;;;;;;;;;8289028;28;20383;-77
2020/12/06 12:39:47;;;;;;;11.15;6.05;;;;;;;;;;8290166;28;20490;-75
2020/12/06 12:43:53;;;;;;;10.95;7.22;;;;;;;;;;8286899;28;20070;-75
2020/12/06 12:47:56;;;;;;;10.38;6.93;;;;;;;;;;8313808;28;20379;-75
2020/12/06 12:52:00;;;;;;;16.17;6.25;;;;;;;;;;8324724;28;20484;-76
2020/12/06 12:56:04;;;;;;;10.18;5.93;;;;;;;;;;8326778;28;20475;-76
2020/12/06 13:00:08;;;;;;;12.88;7.00;;;;;;;;;;8326848;28;20374;-75
2020/12/06 13:04:11;;;;;;;12.00;8.32;;;;;;;;;;8306190;28;20363;-75
2020/12/06 13:08:14;;;;;;;12.98;7.57;;;;;;;;;;8290795;28;20099;-78
2020/12/06 13:12:17;;;;;;;10.57;6.28;;;;;;;;;;8255156;28;20464;-75
2020/12/06 13:16:20;;;;;;;8.75;5.88;;;;;;;;;;8255966;28;20069;-76
2020/12/06 13:20:23;;;;;;;7.80;4.32;;;;;;;;;;8256081;28;20056;-75
2020/12/06 13:24:26;;;;;;;10.00;6.18;;;;;;;;;;8254419;28;20472;-76
2020/12/06 13:28:30;;;;;;;13.80;5.43;;;;;;;;;;8254802;28;20364;-76
2020/12/06 13:32:33;;;;;;;9.27;5.00;;;;;;;;;;8259063;28;20478;-74
2020/12/06 13:36:37;;;;;;;11.18;6.50;;;;;;;;;;8255362;28;20410;-77
2020/12/06 13:40:40;;;;;;;9.45;4.95;;;;;;;;;;8255939;28;20487;-75
2020/12/06 13:44:43;;;;;;;12.52;6.38;;;;;;;;;;8324100;28;20044;-76
2020/12/06 13:48:49;;;;;;;14.10;6.30;;;;;;;;;;8323422;28;20071;-76
2020/12/06 13:52:52;;;;;;;15.32;6.80;;;;;;;;;;8324779;28;20478;-76
2020/12/06 13:56:56;;;;;;;12.30;7.05;;;;;;;;;;8324365;28;20063;-76
2020/12/06 14:01:00;;;;;;;10.93;5.85;;;;;;;;;;8323293;28;20386;-77
2020/12/06 14:05:04;;;;;;;13.68;6.45;;;;;;;;;;8328079;28;20052;-76
2020/12/06 14:09:07;;;;;;;42.17;14.57;;;;;;;;;;8330871;28;20070;-77
2020/12/06 14:13:10;;;;;;;19.50;8.48;;;;;;;;;;8329744;28;20488;-77
2020/12/06 14:17:14;;;;;;;16.58;7.78;;;;;;;;;;8331214;28;20386;-76
2020/12/06 14:21:19;;;;;;;15.45;7.55;;;;;;;;;;8313510;28;20471;-76
2020/12/06 14:25:21;;;;;;;15.90;7.95;;;;;;;;;;8330837;28;20394;-77
2020/12/06 14:29:24;;;;;;;15.15;7.35;;;;;;;;;;8325957;28;20474;-77
2020/12/06 14:33:27;;;;;;;17.40;8.73;;;;;;;;;;8328143;28;20505;-77
2020/12/06 14:37:31;;;;;;;283.92;95.72;;;;;;;;;;8330678;28;20161;-77
2020/12/06 14:41:34;;;;;;;87.25;33.53;;;;;;;;;;8330147;28;20489;-77
2020/12/06 14:45:39;;;;;;;59.55;18.92;;;;;;;;;;8258425;28;20633;-76
2020/12/06 14:49:44;;;;;;;151.32;36.92;;;;;;;;;;8237834;28;20068;-76
2020/12/06 14:53:49;;;;;;;82.75;25.60;;;;;;;;;;8220479;28;20506;-77
2020/12/06 14:57:52;;;;;;;60.67;18.92;;;;;;;;;;8254203;28;20478;-77
2020/12/06 15:01:55;;;;;;;73.53;21.58;;;;;;;;;;8252988;28;20381;-76
2020/12/06 15:05:58;;;;;;;416.58;91.32;;;;;;;;;;8253657;28;20053;-77
2020/12/06 15:10:01;;;;;;;257.45;54.22;;;;;;;;;;8253228;28;20079;-77
2020/12/06 15:14:04;;;;;;;220.70;47.60;;;;;;;;;;8256813;28;20472;-77
2020/12/06 15:18:07;;;;;;;89.82;24.95;;;;;;;;;;8276761;28;20463;-77
2020/12/06 15:22:10;;;;;;;336.95;72.78;;;;;;;;;;8310951;28;20508;-77
2020/12/06 15:26:13;;;;;;;125.20;32.78;;;;;;;;;;8327673;28;20059;-76
2020/12/06 15:30:20;;;;;;;143.27;35.60;;;;;;;;;;8327984;28;20479;-77
2020/12/06 15:34:23;;;;;;;172.45;40.95;;;;;;;;;;8122629;28;20447;-77
2020/12/06 15:38:26;;;;;;;173.73;38.30;;;;;;;;;;8259512;28;20463;-77
2020/12/06 15:42:29;;;;;;;197.13;39.03;;;;;;;;;;8275290;28;20367;-76
2020/12/06 15:46:32;;;;;;;146.57;33.13;;;;;;;;;;8293394;28;20467;-76
2020/12/06 15:50:35;;;;;;;264.45;52.85;;;;;;;;;;8231077;28;20396;-76
2020/12/06 15:54:38;;;;;;;142.38;33.30;;;;;;;;;;8181901;28;20482;-76
2020/12/06 15:58:41;;;;;;;151.82;36.40;;;;;;;;;;8293260;28;20452;-76
2020/12/06 16:02:45;;;;;;;105.32;26.23;;;;;;;;;;8293237;28;20467;-76
2020/12/06 16:06:52;;;;;;;176.52;38.53;;;;;;;;;;8179604;28;20389;-76
2020/12/06 16:10:55;;;;;;;183.65;43.88;;;;;;;;;;8121530;28;20492;-76
2020/12/06 16:14:58;;;;;;;124.57;31.55;;;;;;;;;;8285413;28;20643;-76
2020/12/06 16:19:01;;;;;;;186.07;45.05;;;;;;;;;;8293710;28;20406;-77
2020/12/06 16:23:08;;;;;;;93.88;26.13;;;;;;;;;;8292766;28;20056;-76
2020/12/06 16:27:11;;;;;;;139.00;36.95;;;;;;;;;;8293757;28;20479;-77
2020/12/06 16:31:14;;;;;;;156.05;42.08;;;;;;;;;;8160859;28;20483;-76
2020/12/06 16:35:18;;;;;;;169.73;43.55;;;;;;;;;;8276152;28;20379;-77
2020/12/06 16:39:21;;;;;;;100.88;30.08;;;;;;;;;;8238190;28;20070;-76
2020/12/06 16:43:24;;;;;;;166.27;48.17;;;;;;;;;;8294419;28;20476;-77
2020/12/06 16:47:29;;;;;;;49.50;20.65;;;;;;;;;;8296907;28;20479;-76
2020/12/06 16:51:35;;;;;;;364.73;95.70;;;;;;;;;;8261789;28;20524;-76
2020/12/06 16:55:42;;;;;;;215.20;44.03;;;;;;;;;;8278225;28;20487;-77
2020/12/06 16:59:44;;;;;;;163.80;36.67;;;;;;;;;;8294856;28;20497;-76
2020/12/06 17:03:49;;;;;;;21.75;10.50;;;;;;;;;;8294581;28;20352;-76
2020/12/06 17:07:51;;;;;;;66.13;18.92;;;;;;;;;;8295654;28;20049;-75
2020/12/06 17:11:55;;;;;;;265.75;57.38;;;;;;;;;;8294547;28;20483;-76
2020/12/06 17:16:01;;;;;;;623.95;153.45;;;;;;;;;;8297107;28;20379;-77
2020/12/06 17:20:05;;;;;;;682.42;165.85;;;;;;;;;;8293857;28;20481;-77
2020/12/06 17:24:07;;;;;;;1313.80;304.88;;;;;;;;;;8297012;28;20390;-77
2020/12/06 17:28:12;;;;;;;272.95;56.00;;;;;;;;;;8277010;28;20059;-77
2020/12/06 17:32:17;;;;;;;709.38;135.98;;;;;;;;;;8291470;28;20486;-75
2020/12/06 17:36:20;;;;;;;643.10;125.45;;;;;;;;;;8274064;28;20365;-76
2020/12/06 17:40:25;;;;;;;503.98;99.05;;;;;;;;;;8291222;28;20379;-77
2020/12/06 17:44:28;;;;;;;702.60;133.77;;;;;;;;;;8100713;28;20468;-78
2020/12/06 17:48:33;;;;;;;190.00;41.13;;;;;;;;;;8300446;28;20387;-77
2020/12/06 17:52:36;;;;;;;761.03;159.68;;;;;;;;;;8297325;28;20503;-77
2020/12/06 17:56:39;;;;;;;248.88;44.80;;;;;;;;;;8296557;28;20472;-77
2020/12/06 18:00:42;;;;;;;537.35;98.03;;;;;;;;;;8292355;28;20383;-77
2020/12/06 18:04:47;;;;;;;474.90;84.32;;;;;;;;;;8292194;28;20414;-77
2020/12/06 18:08:49;;;;;;;279.55;51.88;;;;;;;;;;8292243;28;20414;-76
2020/12/06 18:12:52;;;;;;;330.98;54.03;;;;;;;;;;8289905;28;20471;-76
2020/12/06 18:16:59;;;;;;;315.05;56.75;;;;;;;;;;8272544;28;20483;-76
2020/12/06 18:21:02;;;;;;;136.00;31.98;;;;;;;;;;8292370;28;20472;-78
2020/12/06 18:25:06;;;;;;;490.33;98.53;;;;;;;;;;8293990;28;20386;-77
2020/12/06 18:29:09;;;;;;;314.17;61.65;;;;;;;;;;8293764;28;20489;-77
2020/12/06 18:33:12;;;;;;;199.98;41.95;;;;;;;;;;8292807;28;20083;-77
2020/12/06 18:37:15;;;;;;;167.82;36.50;;;;;;;;;;8292256;28;20360;-76
2020/12/06 18:41:23;;;;;;;110.20;24.48;;;;;;;;;;8291470;28;20390;-77
2020/12/06 18:45:28;;;;;;;450.17;85.50;;;;;;;;;;8291184;28;20044;-77
2020/12/06 18:49:31;;;;;;;199.98;36.55;;;;;;;;;;8292060;28;20390;-76
2020/12/06 18:53:35;;;;;;;285.30;49.58;;;;;;;;;;8262380;28;20063;-76
2020/12/06 18:57:39;;;;;;;43.25;13.95;;;;;;;;;;8263055;28;20418;-77
2020/12/06 19:01:42;;;;;;;46.67;15.43;;;;;;;;;;8262600;28;20045;-76
2020/12/06 19:05:48;;;;;;;241.10;51.45;;;;;;;;;;8264822;28;20361;-76
2020/12/06 19:09:51;;;;;;;178.05;40.85;;;;;;;;;;8245523;28;20052;-76
2020/12/06 19:13:58;;;;;;;126.25;30.63;;;;;;;;;;8122403;28;20098;-76
2020/12/06 19:18:01;;;;;;;145.80;36.38;;;;;;;;;;8245905;28;20455;-77
2020/12/06 19:22:04;;;;;;;116.60;29.30;;;;;;;;;;8261555;28;20468;-76
2020/12/06 19:26:11;;;;;;;92.28;24.08;;;;;;;;;;8263349;28;20468;-76
2020/12/06 19:30:14;;;;;;;68.68;19.80;;;;;;;;;;8262313;28;20079;-76
2020/12/06 19:34:18;;;;;;;78.25;22.73;;;;;;;;;;8263921;28;20472;-76
2020/12/06 19:38:21;;;;;;;33.78;13.57;;;;;;;;;;8263164;28;20494;-77
2020/12/06 19:42:25;;;;;;;98.68;27.52;;;;;;;;;;8262638;28;20353;-77
2020/12/06 19:46:29;;;;;;;69.43;22.23;;;;;;;;;;8167635;28;20067;-76
2020/12/06 19:50:33;;;;;;;83.90;25.67;;;;;;;;;;8264664;28;20049;-77
2020/12/06 19:54:37;;;;;;;91.28;26.60;;;;;;;;;;8277706;28;20352;-76
2020/12/06 19:58:40;;;;;;;72.00;24.15;;;;;;;;;;8294296;28;20378;-76
2020/12/06 20:02:45;;;;;;;118.32;31.92;;;;;;;;;;8294190;28;20378;-78
2020/12/06 20:06:49;;;;;;;59.28;19.85;;;;;;;;;;8295248;28;20475;-76
2020/12/06 20:10:52;;;;;;;48.25;17.27;;;;;;;;;;8275908;28;20497;-76
2020/12/06 20:14:56;;;;;;;538.80;165.00;;;;;;;;;;8293177;28;20048;-75
2020/12/06 20:18:59;;;;;;;275.77;57.22;;;;;;;;;;8293671;28;20371;-76
2020/12/06 20:23:01;;;;;;;589.90;122.68;;;;;;;;;;8294171;28;20471;-76
2020/12/06 20:27:06;;;;;;;537.60;114.10;;;;;;;;;;8294579;28;20489;-76
2020/12/06 20:31:12;;;;;;;124.75;27.50;;;;;;;;;;8293441;28;20459;-77
2020/12/06 20:35:15;;;;;;;103.88;26.38;;;;;;;;;;8293684;28;20417;-76
2020/12/06 20:39:18;;;;;;;269.20;47.30;;;;;;;;;;8292483;28;20464;-77
2020/12/06 20:43:23;;;;;;;225.90;43.78;;;;;;;;;;8293177;28;20483;-75
2020/12/06 20:47:29;;;;;;;442.75;83.30;;;;;;;;;;8290824;28;20056;-77
2020/12/06 20:51:33;;;;;;;211.02;37.88;;;;;;;;;;8273878;28;20158;-77
2020/12/06 20:55:37;;;;;;;289.20;47.38;;;;;;;;;;8292100;28;20053;-76
2020/12/06 20:59:40;;;;;;;65.85;18.80;;;;;;;;;;8291289;28;20371;-77
2020/12/06 21:03:44;;;;;;;147.75;30.27;;;;;;;;;;8290810;28;20475;-77
2020/12/06 21:07:47;;;;;;;87.45;21.17;;;;;;;;;;8290085;28;20473;-76
2020/12/06 21:11:52;;;;;;;107.25;25.33;;;;;;;;;;8291378;28;20064;-76
2020/12/06 21:15:57;;;;;;;63.13;17.85;;;;;;;;;;8290703;28;20459;-76
2020/12/06 21:20:00;;;;;;;179.85;40.33;;;;;;;;;;8291129;28;20048;-77
2020/12/06 21:24:08;;;;;;;;;;;;;;;;;;8291786;28;20502;-76
2020/12/06 21:28:14;;;;;;;73.30;19.42;;;;;;;;;;8291650;28;20267;-76
2020/12/06 21:32:18;;;;;;;42.55;16.23;;;;;;;;;;8272872;28;20491;-75
2020/12/06 21:36:21;;;;;;;121.65;32.78;;;;;;;;;;8291236;28;20353;-76
2020/12/06 21:40:25;;;;;;;72.80;23.73;;;;;;;;;;8290932;28;20495;-76
2020/12/06 21:44:28;;;;;;;109.15;32.83;;;;;;;;;;8290786;28;20368;-76
2020/12/06 21:48:33;;;;;;;93.93;28.95;;;;;;;;;;8273088;28;20379;-76
2020/12/06 21:52:36;;;;;;;39.70;14.15;;;;;;;;;;8290457;28;20497;-77
2020/12/06 21:56:42;;;;;;;36.50;13.90;;;;;;;;;;8289325;28;20467;-76
2020/12/06 22:00:46;;;;;;;53.63;19.45;;;;;;;;;;8272192;28;20052;-76
2020/12/06 22:04:49;;;;;;;38.25;15.52;;;;;;;;;;8289681;28;20451;-76
2020/12/06 22:08:51;;;;;;;40.72;15.70;;;;;;;;;;8289779;28;20375;-76
2020/12/06 22:12:54;;;;;;;24.75;13.38;;;;;;;;;;8290811;28;20489;-77
2020/12/06 22:16:57;;;;;;;65.70;21.75;;;;;;;;;;8290322;28;20075;-77
2020/12/06 22:21:00;;;;;;;28.08;11.93;;;;;;;;;;8273172;28;20066;-76
2020/12/06 22:25:03;;;;;;;50.55;20.10;;;;;;;;;;8292222;28;20071;-76
2020/12/06 22:29:06;;;;;;;32.03;14.23;;;;;;;;;;8298387;28;20469;-76
2020/12/06 22:33:09;;;;;;;32.58;15.48;;;;;;;;;;8296010;28;20375;-76
2020/12/06 22:37:12;;;;;;;35.25;15.32;;;;;;;;;;8297455;28;20485;-76
2020/12/06 22:41:18;;;;;;;51.72;20.30;;;;;;;;;;8295692;28;20470;-76
2020/12/06 22:45:22;;;;;;;19.50;10.38;;;;;;;;;;8297468;28;20045;-77
2020/12/06 22:49:25;;;;;;;18.35;9.40;;;;;;;;;;8297321;28;20427;-77
2020/12/06 22:53:28;;;;;;;34.53;13.27;;;;;;;;;;8297007;28;20353;-77
2020/12/06 22:57:31;;;;;;;21.98;10.50;;;;;;;;;;8298541;28;20057;-77
2020/12/06 23:01:34;;;;;;;33.05;13.85;;;;;;;;;;8297109;28;20075;-77
2020/12/06 23:05:39;;;;;;;37.67;15.05;;;;;;;;;;8297010;28;20044;-76
2020/12/06 23:09:42;;;;;;;19.77;9.63;;;;;;;;;;8297846;28;20369;-77
2020/12/06 23:13:44;;;;;;;31.77;13.40;;;;;;;;;;8298355;28;20405;-76
2020/12/06 23:17:52;;;;;;;21.20;11.18;;;;;;;;;;8280775;28;20048;-77
2020/12/06 23:21:55;;;;;;;20.53;11.20;;;;;;;;;;7587111;28;10001906;-77
2020/12/06 23:25:58;;;;;;;16.80;9.07;;;;;;;;;;8284698;28;20356;-77
2020/12/06 23:30:06;;;;;;;35.75;15.50;;;;;;;;;;8298139;28;20485;-76
2020/12/06 23:34:09;;;;;;;25.48;11.68;;;;;;;;;;8296000;28;20467;-77
2020/12/06 23:38:12;;;;;;;31.55;13.10;;;;;;;;;;8295815;28;20052;-77